Airfield :
LOGIN :

Register | Disclaimer

   EN    FR    IT 

 










Legend :    VFR   Marginal VFR   IFR   Intensive IFR   Very Intensive IFR
Visi :
Ceiling :
>= 8 km
>= 3000ft
5 to 8 km
1000 to 3000 ft
1500m to 5 km
500 to 1000 ft
800 to 1500m
200 to 500 ft
< 800m
< 200 ft
Symbols :   Thunderstorms  Fog  Heavy snow  Heavy precipitations  Wind > 20 kt
SIGMETs :     Misc.  Thunderstorms  Icing  Turbulence  Mountain Waves  Volcanic Ashes







- Airport Elevation : 204 ft
- IATA code : AGF
- Download approach charts


LFBA - Agen

CURRENT METAR :
  • 130730Z AUTO 10009KT CAVOK 05/05 Q1006 BECMG 4000 -RA BKN008

EXPIRED METARs :
  • 130700Z AUTO 11010KT CAVOK 05/04 Q1007 BECMG 4000 -RA BKN008
  • 130630Z AUTO 11007KT CAVOK 06/05 Q1007 BECMG 4000 -RA BKN008
  • 130600Z AUTO 11007KT CAVOK 06/05 Q1007 TEMPO 4500 BR OVC004
  • 130530Z AUTO 10008KT 9000 NSC 06/05 Q1007 TEMPO 4500 BR OVC004
  • 130500Z AUTO 11007KT 8000 NSC 06/05 Q1008

TAF TAF LFBA
Valid from the 13 at 06:00 until the 13 at 15:00 UTC


130500Z 1306/1315 11008KT 8000 NSC
PROB40
TEMPO 1306/1308 4500 BR OVC004
BECMG 1308/1310 4000 -RA BKN008
TEMPO 1312/1315 2000 RA OVC004
No reported NOTAMs for that airfield.
3 SIGMETs reported for the Bordeaux FIR (LFBB) :
 
Severe turbulence
LFBB SIGMET 3 VALID 130720/131000 LFPW
LFBB BORDEAUX FIR/UIR SEV TURB OBS AT 0720Z WI N4230 E00045 - N4300 W00145 - N4630 W00130 - N4630 W00015 - N4700 W00015 - N4645 E00100 - N4230 E00045 FL300/390 MOV E 20KT NC=
SIGMET 1  cancelation
LFBB SIGMET 2 VALID 130725/130800 LFPW
LFBB BORDEAUX FIR/UIR CNL SIGMET 1 130600/130800=
SIGMET 1  CANCELED :
Severe turbulence
LFBB SIGMET 1 VALID 130600/130800 LFPW
LFBB BORDEAUX FIR/UIR SEV TURB OBS WI N4245 W00030 - N4300 W00145 - N4630 W00130 - N4630 W00015 - N4700 W00015 - N4245 W00030 FL300/390 STNR NC=



MET'MAP, your aeronautical weather chart ! - Copyright ORBIFLY December 2007 - Disclaimer

ORBIFLY MET'MAP TEAM :

Programming & Development : Alexandra Zaïnal
Concept & Development : Baudouin d'Aumeries
Co-Development & Prog : Marc-Olivier Méhu
Technical & hardware support : Manuel Goepfert

Contact : metmap@orbifly.com




SOURCES & CREDITS :

   NOAA